sensor_id;sensor_type;location;lat;lon;timestamp;noise_LAeq;noise_LA_min;noise_LA_max;noise_LA01;noise_LA95
46749;Laerm;33775;47.992;11.864;2023-02-15T00:01:24;38.40;32.35;40.13;;
46749;Laerm;33775;47.992;11.864;2023-02-15T00:03:50;38.23;31.68;40.23;;
46749;Laerm;33775;47.992;11.864;2023-02-15T00:06:15;37.97;23.90;40.03;;
46749;Laerm;33775;47.992;11.864;2023-02-15T00:08:41;37.86;31.68;39.92;;
46749;Laerm;33775;47.992;11.864;2023-02-15T00:11:07;37.72;30.89;40.13;;
46749;Laerm;33775;47.992;11.864;2023-02-15T00:13:32;37.74;28.67;40.03;;
46749;Laerm;33775;47.992;11.864;2023-02-15T00:16:05;37.57;28.67;40.33;;
46749;Laerm;33775;47.992;11.864;2023-02-15T00:18:30;37.46;30.89;39.70;;
46749;Laerm;33775;47.992;11.864;2023-02-15T00:20:55;37.30;28.67;39.92;;
46749;Laerm;33775;47.992;11.864;2023-02-15T00:23:21;37.38;28.67;39.92;;
46749;Laerm;33775;47.992;11.864;2023-02-15T00:25:46;37.52;29.92;39.81;;
46749;Laerm;33775;47.992;11.864;2023-02-15T00:28:11;37.67;30.89;39.92;;
46749;Laerm;33775;47.992;11.864;2023-02-15T00:30:36;37.79;31.68;40.13;;
46749;Laerm;33775;47.992;11.864;2023-02-15T00:33:01;38.07;31.68;40.13;;
46749;Laerm;33775;47.992;11.864;2023-02-15T00:35:27;38.36;32.35;40.08;;
46749;Laerm;33775;47.992;11.864;2023-02-15T00:37:52;38.57;34.31;40.23;;
46749;Laerm;33775;47.992;11.864;2023-02-15T00:40:17;38.40;32.93;40.23;;
46749;Laerm;33775;47.992;11.864;2023-02-15T00:42:42;38.41;32.35;40.13;;
46749;Laerm;33775;47.992;11.864;2023-02-15T00:45:08;38.42;32.93;40.33;;
46749;Laerm;33775;47.992;11.864;2023-02-15T00:47:33;38.36;33.90;40.33;;
46749;Laerm;33775;47.992;11.864;2023-02-15T00:49:58;38.37;33.44;40.23;;
46749;Laerm;33775;47.992;11.864;2023-02-15T00:52:23;38.24;32.93;40.13;;
46749;Laerm;33775;47.992;11.864;2023-02-15T00:54:48;38.34;32.93;40.33;;
46749;Laerm;33775;47.992;11.864;2023-02-15T00:57:14;38.37;33.44;40.23;;
46749;Laerm;33775;47.992;11.864;2023-02-15T01:02:07;38.17;32.35;39.92;;
46749;Laerm;33775;47.992;11.864;2023-02-15T01:04:32;38.07;31.68;40.13;;
46749;Laerm;33775;47.992;11.864;2023-02-15T01:06:57;37.98;31.68;40.23;;
46749;Laerm;33775;47.992;11.864;2023-02-15T01:09:22;37.97;31.68;39.92;;
46749;Laerm;33775;47.992;11.864;2023-02-15T01:11:47;38.03;32.35;40.03;;
46749;Laerm;33775;47.992;11.864;2023-02-15T01:14:13;38.28;32.35;40.13;;
46749;Laerm;33775;47.992;11.864;2023-02-15T01:16:38;38.36;33.44;40.23;;
46749;Laerm;33775;47.992;11.864;2023-02-15T01:19:03;38.24;29.92;40.03;;
46749;Laerm;33775;47.992;11.864;2023-02-15T01:21:28;38.29;33.44;40.03;;
46749;Laerm;33775;47.992;11.864;2023-02-15T01:23:54;38.54;33.44;40.33;;
46749;Laerm;33775;47.992;11.864;2023-02-15T01:26:19;38.59;33.44;40.33;;
46749;Laerm;33775;47.992;11.864;2023-02-15T01:28:44;38.60;32.93;40.23;;
46749;Laerm;33775;47.992;11.864;2023-02-15T01:31:14;38.58;32.35;40.53;;
46749;Laerm;33775;47.992;11.864;2023-02-15T01:33:39;38.44;31.68;40.33;;
46749;Laerm;33775;47.992;11.864;2023-02-15T01:36:05;38.37;32.35;40.13;;
46749;Laerm;33775;47.992;11.864;2023-02-15T01:38:30;38.46;30.89;40.23;;
46749;Laerm;33775;47.992;11.864;2023-02-15T01:40:55;38.44;33.44;40.23;;
46749;Laerm;33775;47.992;11.864;2023-02-15T01:43:44;38.29;31.68;40.03;;
46749;Laerm;33775;47.992;11.864;2023-02-15T01:46:10;38.11;30.89;40.23;;
46749;Laerm;33775;47.992;11.864;2023-02-15T01:48:38;37.93;30.89;39.92;;
46749;Laerm;33775;47.992;11.864;2023-02-15T01:51:06;37.85;30.89;39.92;;
46749;Laerm;33775;47.992;11.864;2023-02-15T01:53:34;37.85;29.92;40.13;;
46749;Laerm;33775;47.992;11.864;2023-02-15T01:56:05;38.14;31.68;39.99;;
46749;Laerm;33775;47.992;11.864;2023-02-15T01:58:31;38.33;31.68;40.13;;
46749;Laerm;33775;47.992;11.864;2023-02-15T02:00:58;38.12;32.93;40.23;;
46749;Laerm;33775;47.992;11.864;2023-02-15T02:03:27;38.12;32.35;40.23;;
46749;Laerm;33775;47.992;11.864;2023-02-15T02:05:57;38.16;31.68;40.23;;
46749;Laerm;33775;47.992;11.864;2023-02-15T02:08:22;38.40;32.93;40.13;;
46749;Laerm;33775;47.992;11.864;2023-02-15T02:10:47;38.50;33.90;40.23;;
46749;Laerm;33775;47.992;11.864;2023-02-15T02:13:12;38.42;32.35;40.33;;
46749;Laerm;33775;47.992;11.864;2023-02-15T02:15:45;38.44;33.44;40.13;;
46749;Laerm;33775;47.992;11.864;2023-02-15T02:18:20;38.34;33.90;40.13;;
46749;Laerm;33775;47.992;11.864;2023-02-15T02:23:24;38.15;32.35;40.13;;
46749;Laerm;33775;47.992;11.864;2023-02-15T02:28:33;38.15;33.44;40.13;;
46749;Laerm;33775;47.992;11.864;2023-02-15T02:36:24;37.76;30.89;39.92;;
46749;Laerm;33775;47.992;11.864;2023-02-15T02:41:43;38.14;32.35;40.23;;
46749;Laerm;33775;47.992;11.864;2023-02-15T02:44:13;38.40;33.44;40.03;;
46749;Laerm;33775;47.992;11.864;2023-02-15T02:46:47;38.36;32.93;40.23;;
46749;Laerm;33775;47.992;11.864;2023-02-15T02:49:13;38.45;33.09;40.13;;
46749;Laerm;33775;47.992;11.864;2023-02-15T02:51:39;38.43;32.35;40.23;;
46749;Laerm;33775;47.992;11.864;2023-02-15T02:54:04;38.39;33.44;40.13;;
46749;Laerm;33775;47.992;11.864;2023-02-15T02:56:33;38.29;33.44;40.13;;
46749;Laerm;33775;47.992;11.864;2023-02-15T02:59:04;38.16;31.68;40.03;;
46749;Laerm;33775;47.992;11.864;2023-02-15T03:01:32;37.90;31.68;40.03;;
46749;Laerm;33775;47.992;11.864;2023-02-15T03:04:03;37.98;28.67;40.23;;
46749;Laerm;33775;47.992;11.864;2023-02-15T03:06:40;38.08;31.68;40.03;;
46749;Laerm;33775;47.992;11.864;2023-02-15T03:09:11;38.21;31.68;40.13;;
46749;Laerm;33775;47.992;11.864;2023-02-15T03:11:39;38.04;32.35;39.92;;
46749;Laerm;33775;47.992;11.864;2023-02-15T03:14:05;37.65;30.89;39.81;;
46749;Laerm;33775;47.992;11.864;2023-02-15T03:16:30;37.41;30.89;40.23;;
46749;Laerm;33775;47.992;11.864;2023-02-15T03:18:58;37.29;29.92;39.92;;
46749;Laerm;33775;47.992;11.864;2023-02-15T03:21:44;37.25;28.67;39.92;;
46749;Laerm;33775;47.992;11.864;2023-02-15T03:24:14;37.45;30.89;40.03;;
46749;Laerm;33775;47.992;11.864;2023-02-15T03:26:42;37.42;29.92;39.81;;
46749;Laerm;33775;47.992;11.864;2023-02-15T03:29:08;37.59;30.89;39.81;;
46749;Laerm;33775;47.992;11.864;2023-02-15T03:31:37;37.80;31.33;40.13;;
46749;Laerm;33775;47.992;11.864;2023-02-15T03:34:04;37.88;31.68;40.33;;
46749;Laerm;33775;47.992;11.864;2023-02-15T03:38:58;37.75;31.68;40.13;;
46749;Laerm;33775;47.992;11.864;2023-02-15T03:41:26;37.71;29.57;40.03;;
46749;Laerm;33775;47.992;11.864;2023-02-15T03:43:54;37.64;28.67;40.03;;
46749;Laerm;33775;47.992;11.864;2023-02-15T03:48:47;37.67;29.92;39.92;;
46749;Laerm;33775;47.992;11.864;2023-02-15T03:51:17;37.58;29.92;39.81;;
46749;Laerm;33775;47.992;11.864;2023-02-15T03:53:58;37.54;29.92;39.92;;
46749;Laerm;33775;47.992;11.864;2023-02-15T03:56:24;37.47;30.89;40.13;;
46749;Laerm;33775;47.992;11.864;2023-02-15T03:58:49;37.89;32.35;40.23;;
46749;Laerm;33775;47.992;11.864;2023-02-15T04:01:34;38.24;31.68;40.13;;
46749;Laerm;33775;47.992;11.864;2023-02-15T04:04:21;38.43;33.44;40.33;;
46749;Laerm;33775;47.992;11.864;2023-02-15T04:06:47;38.51;32.93;40.33;;
46749;Laerm;33775;47.992;11.864;2023-02-15T04:09:12;38.45;29.92;40.33;;
46749;Laerm;33775;47.992;11.864;2023-02-15T04:11:57;38.36;32.35;40.13;;
46749;Laerm;33775;47.992;11.864;2023-02-15T04:14:22;38.35;33.44;40.23;;
46749;Laerm;33775;47.992;11.864;2023-02-15T04:17:06;38.44;33.09;40.13;;
46749;Laerm;33775;47.992;11.864;2023-02-15T04:19:32;38.37;32.93;40.33;;
46749;Laerm;33775;47.992;11.864;2023-02-15T04:22:15;38.29;32.93;40.03;;
46749;Laerm;33775;47.992;11.864;2023-02-15T04:24:59;38.31;32.35;40.13;;
46749;Laerm;33775;47.992;11.864;2023-02-15T04:27:41;38.24;33.44;40.23;;
46749;Laerm;33775;47.992;11.864;2023-02-15T04:30:06;38.08;28.67;40.13;;
46749;Laerm;33775;47.992;11.864;2023-02-15T04:32:32;38.03;31.68;40.43;;
46749;Laerm;33775;47.992;11.864;2023-02-15T04:34:58;38.27;32.35;40.13;;
46749;Laerm;33775;47.992;11.864;2023-02-15T04:37:23;38.37;32.35;40.13;;
46749;Laerm;33775;47.992;11.864;2023-02-15T04:39:48;38.52;31.68;40.33;;
46749;Laerm;33775;47.992;11.864;2023-02-15T04:42:14;38.62;32.93;40.33;;
46749;Laerm;33775;47.992;11.864;2023-02-15T04:44:39;38.56;33.90;40.13;;
46749;Laerm;33775;47.992;11.864;2023-02-15T04:47:05;38.52;32.93;40.23;;
46749;Laerm;33775;47.992;11.864;2023-02-15T04:49:30;38.43;32.93;40.13;;
46749;Laerm;33775;47.992;11.864;2023-02-15T04:51:55;38.41;32.35;40.23;;
46749;Laerm;33775;47.992;11.864;2023-02-15T04:54:20;38.33;33.90;40.13;;
46749;Laerm;33775;47.992;11.864;2023-02-15T04:56:45;38.36;32.35;40.33;;
46749;Laerm;33775;47.992;11.864;2023-02-15T04:59:11;38.35;29.92;40.33;;
46749;Laerm;33775;47.992;11.864;2023-02-15T05:01:36;38.36;32.35;40.33;;
46749;Laerm;33775;47.992;11.864;2023-02-15T05:04:01;38.37;33.44;40.13;;
46749;Laerm;33775;47.992;11.864;2023-02-15T05:06:27;38.49;33.09;40.23;;
46749;Laerm;33775;47.992;11.864;2023-02-15T05:08:52;38.70;33.90;40.43;;
46749;Laerm;33775;47.992;11.864;2023-02-15T05:11:18;38.83;35.36;40.43;;
46749;Laerm;33775;47.992;11.864;2023-02-15T05:13:43;38.77;35.36;40.33;;
46749;Laerm;33775;47.992;11.864;2023-02-15T05:16:08;38.80;35.36;40.33;;
46749;Laerm;33775;47.992;11.864;2023-02-15T05:18:33;38.76;34.69;40.53;;
46749;Laerm;33775;47.992;11.864;2023-02-15T05:20:58;38.73;34.31;40.33;;
46749;Laerm;33775;47.992;11.864;2023-02-15T05:23:23;38.64;35.04;40.33;;
46749;Laerm;33775;47.992;11.864;2023-02-15T05:25:49;38.69;34.31;40.03;;
46749;Laerm;33775;47.992;11.864;2023-02-15T05:28:33;38.64;34.69;40.23;;
46749;Laerm;33775;47.992;11.864;2023-02-15T05:33:29;38.53;33.44;40.43;;
46749;Laerm;33775;47.992;11.864;2023-02-15T05:35:54;38.49;35.66;40.13;;
46749;Laerm;33775;47.992;11.864;2023-02-15T05:38:20;38.46;35.66;40.13;;
46749;Laerm;33775;47.992;11.864;2023-02-15T05:40:45;38.48;36.20;40.03;;
46749;Laerm;33775;47.992;11.864;2023-02-15T05:43:10;38.49;35.94;40.13;;
46749;Laerm;33775;47.992;11.864;2023-02-15T05:45:35;38.49;35.36;40.18;;
46749;Laerm;33775;47.992;11.864;2023-02-15T05:48:00;38.49;35.66;40.43;;
46749;Laerm;33775;47.992;11.864;2023-02-15T05:50:26;38.50;35.36;40.13;;
46749;Laerm;33775;47.992;11.864;2023-02-15T05:52:51;38.58;35.04;40.23;;
46749;Laerm;33775;47.992;11.864;2023-02-15T05:55:16;38.60;35.04;40.13;;
46749;Laerm;33775;47.992;11.864;2023-02-15T05:57:42;38.59;35.36;40.33;;
46749;Laerm;33775;47.992;11.864;2023-02-15T06:00:07;38.58;35.31;40.33;;
46749;Laerm;33775;47.992;11.864;2023-02-15T06:02:35;38.62;31.68;40.23;;
46749;Laerm;33775;47.992;11.864;2023-02-15T06:05:00;38.65;35.04;40.13;;
46749;Laerm;33775;47.992;11.864;2023-02-15T06:07:25;38.61;34.31;40.23;;
46749;Laerm;33775;47.992;11.864;2023-02-15T06:09:50;38.57;33.90;40.33;;
46749;Laerm;33775;47.992;11.864;2023-02-15T06:12:16;38.60;34.34;40.23;;
46749;Laerm;33775;47.992;11.864;2023-02-15T06:14:41;38.64;34.31;40.33;;
46749;Laerm;33775;47.992;11.864;2023-02-15T06:17:06;38.65;34.31;40.53;;
46749;Laerm;33775;47.992;11.864;2023-02-15T06:19:31;38.57;33.44;40.23;;
46749;Laerm;33775;47.992;11.864;2023-02-15T06:21:57;38.59;32.35;40.53;;
46749;Laerm;33775;47.992;11.864;2023-02-15T06:24:22;38.62;33.90;40.23;;
46749;Laerm;33775;47.992;11.864;2023-02-15T06:26:47;38.62;34.31;40.23;;
46749;Laerm;33775;47.992;11.864;2023-02-15T06:29:12;38.58;33.44;40.13;;
46749;Laerm;33775;47.992;11.864;2023-02-15T06:31:38;38.49;33.44;40.33;;
46749;Laerm;33775;47.992;11.864;2023-02-15T06:34:03;38.51;33.90;40.33;;
46749;Laerm;33775;47.992;11.864;2023-02-15T06:36:28;38.65;33.44;40.23;;
46749;Laerm;33775;47.992;11.864;2023-02-15T06:38:54;38.54;33.55;40.33;;
46749;Laerm;33775;47.992;11.864;2023-02-15T06:41:19;38.56;32.93;40.33;;
46749;Laerm;33775;47.992;11.864;2023-02-15T06:43:44;38.65;34.69;40.23;;
46749;Laerm;33775;47.992;11.864;2023-02-15T06:46:09;38.59;33.90;40.43;;
46749;Laerm;33775;47.992;11.864;2023-02-15T06:48:35;38.52;31.68;40.23;;
46749;Laerm;33775;47.992;11.864;2023-02-15T06:51:00;38.51;34.31;40.23;;
46749;Laerm;33775;47.992;11.864;2023-02-15T06:53:25;38.69;35.04;40.33;;
46749;Laerm;33775;47.992;11.864;2023-02-15T06:55:50;38.80;34.69;40.53;;
46749;Laerm;33775;47.992;11.864;2023-02-15T06:58:15;38.72;35.66;40.43;;
46749;Laerm;33775;47.992;11.864;2023-02-15T07:00:41;38.70;35.94;40.33;;
46749;Laerm;33775;47.992;11.864;2023-02-15T07:03:06;38.68;36.20;40.33;;
46749;Laerm;33775;47.992;11.864;2023-02-15T07:05:33;38.64;35.66;40.13;;
46749;Laerm;33775;47.992;11.864;2023-02-15T07:07:58;38.57;32.93;40.13;;
46749;Laerm;33775;47.992;11.864;2023-02-15T07:10:23;38.45;36.20;40.33;;
46749;Laerm;33775;47.992;11.864;2023-02-15T07:12:50;38.35;33.90;39.92;;
46749;Laerm;33775;47.992;11.864;2023-02-15T07:15:16;38.28;34.31;39.92;;
46749;Laerm;33775;47.992;11.864;2023-02-15T07:17:41;38.28;33.44;39.92;;
46749;Laerm;33775;47.992;11.864;2023-02-15T07:20:08;38.26;34.31;40.13;;
46749;Laerm;33775;47.992;11.864;2023-02-15T07:22:34;38.32;33.44;40.13;;
46749;Laerm;33775;47.992;11.864;2023-02-15T07:25:01;38.36;35.36;40.33;;
46749;Laerm;33775;47.992;11.864;2023-02-15T07:27:26;38.34;35.66;39.81;;
46749;Laerm;33775;47.992;11.864;2023-02-15T07:29:51;38.24;34.31;40.03;;
46749;Laerm;33775;47.992;11.864;2023-02-15T07:32:17;38.17;34.69;40.03;;
46749;Laerm;33775;47.992;11.864;2023-02-15T07:34:42;38.08;33.44;39.92;;
46749;Laerm;33775;47.992;11.864;2023-02-15T07:37:07;37.98;30.89;39.81;;
46749;Laerm;33775;47.992;11.864;2023-02-15T07:39:32;38.06;33.44;39.92;;
46749;Laerm;33775;47.992;11.864;2023-02-15T07:41:59;38.01;32.35;39.81;;
46749;Laerm;33775;47.992;11.864;2023-02-15T07:44:24;38.18;34.69;39.81;;
46749;Laerm;33775;47.992;11.864;2023-02-15T07:46:50;38.26;34.31;39.92;;
46749;Laerm;33775;47.992;11.864;2023-02-15T07:49:16;38.19;34.31;40.36;;
46749;Laerm;33775;47.992;11.864;2023-02-15T07:51:41;38.05;32.93;40.23;;
46749;Laerm;33775;47.992;11.864;2023-02-15T07:54:06;37.88;32.93;39.70;;
46749;Laerm;33775;47.992;11.864;2023-02-15T07:56:31;37.65;29.92;39.70;;
46749;Laerm;33775;47.992;11.864;2023-02-15T07:58:57;37.44;29.92;39.58;;
46749;Laerm;33775;47.992;11.864;2023-02-15T08:01:25;37.18;30.89;39.58;;
46749;Laerm;33775;47.992;11.864;2023-02-15T08:03:51;36.63;28.67;39.11;;
46749;Laerm;33775;47.992;11.864;2023-02-15T08:06:16;36.43;23.90;39.58;;
46749;Laerm;33775;47.992;11.864;2023-02-15T08:08:42;36.52;29.92;39.58;;
46749;Laerm;33775;47.992;11.864;2023-02-15T08:11:14;36.43;23.90;39.08;;
46749;Laerm;33775;47.992;11.864;2023-02-15T08:16:43;36.25;26.91;39.08;;
46749;Laerm;33775;47.992;11.864;2023-02-15T08:19:19;36.22;28.67;39.08;;
46749;Laerm;33775;47.992;11.864;2023-02-15T08:21:49;36.20;29.92;39.08;;
46749;Laerm;33775;47.992;11.864;2023-02-15T08:24:17;36.19;28.67;39.34;;
46749;Laerm;33775;47.992;11.864;2023-02-15T08:26:43;36.20;28.67;39.08;;
46749;Laerm;33775;47.992;11.864;2023-02-15T08:29:11;36.21;28.67;38.99;;
46749;Laerm;33775;47.992;11.864;2023-02-15T08:31:37;36.20;28.67;39.21;;
46749;Laerm;33775;47.992;11.864;2023-02-15T08:34:03;36.22;30.89;39.70;;
46749;Laerm;33775;47.992;11.864;2023-02-15T08:36:29;36.20;29.92;39.34;;
46749;Laerm;33775;47.992;11.864;2023-02-15T08:38:57;36.20;29.92;39.35;;
46749;Laerm;33775;47.992;11.864;2023-02-15T08:41:24;36.22;26.91;39.46;;
46749;Laerm;33775;47.992;11.864;2023-02-15T08:43:51;36.24;28.67;39.34;;
46749;Laerm;33775;47.992;11.864;2023-02-15T08:46:16;36.25;29.92;39.21;;
46749;Laerm;33775;47.992;11.864;2023-02-15T08:48:42;36.26;29.92;39.58;;
46749;Laerm;33775;47.992;11.864;2023-02-15T08:51:08;36.29;28.67;39.58;;
46749;Laerm;33775;47.992;11.864;2023-02-15T08:53:35;36.34;28.67;39.46;;
46749;Laerm;33775;47.992;11.864;2023-02-15T08:56:00;36.37;30.89;39.34;;
46749;Laerm;33775;47.992;11.864;2023-02-15T08:58:26;36.37;29.92;39.58;;
46749;Laerm;33775;47.992;11.864;2023-02-15T09:00:51;36.39;29.92;39.70;;
46749;Laerm;33775;47.992;11.864;2023-02-15T09:03:16;36.44;28.67;39.34;;
46749;Laerm;33775;47.992;11.864;2023-02-15T09:05:41;36.38;30.89;39.81;;
46749;Laerm;33775;47.992;11.864;2023-02-15T09:08:07;36.40;29.92;39.46;;
46749;Laerm;33775;47.992;11.864;2023-02-15T09:10:32;36.38;29.92;39.70;;
46749;Laerm;33775;47.992;11.864;2023-02-15T09:12:57;36.36;28.67;39.34;;
46749;Laerm;33775;47.992;11.864;2023-02-15T09:15:22;36.34;30.89;39.34;;
46749;Laerm;33775;47.992;11.864;2023-02-15T09:17:47;36.40;28.67;39.21;;
46749;Laerm;33775;47.992;11.864;2023-02-15T09:20:12;36.40;30.89;39.58;;
46749;Laerm;33775;47.992;11.864;2023-02-15T09:22:38;36.40;28.67;39.34;;
46749;Laerm;33775;47.992;11.864;2023-02-15T09:25:03;36.41;30.89;39.58;;
46749;Laerm;33775;47.992;11.864;2023-02-15T09:27:29;36.40;29.92;39.21;;
46749;Laerm;33775;47.992;11.864;2023-02-15T09:29:54;36.51;29.92;39.58;;
46749;Laerm;33775;47.992;11.864;2023-02-15T09:32:19;36.52;30.89;39.34;;
46749;Laerm;33775;47.992;11.864;2023-02-15T09:34:45;36.51;30.89;39.58;;
46749;Laerm;33775;47.992;11.864;2023-02-15T09:37:13;36.52;29.92;39.58;;
46749;Laerm;33775;47.992;11.864;2023-02-15T09:39:39;36.50;29.92;39.70;;
46749;Laerm;33775;47.992;11.864;2023-02-15T09:49:44;36.53;31.33;39.70;;
46749;Laerm;33775;47.992;11.864;2023-02-15T09:52:29;36.64;29.92;39.58;;
46749;Laerm;33775;47.992;11.864;2023-02-15T10:00:20;36.67;30.89;39.81;;
46749;Laerm;33775;47.992;11.864;2023-02-15T10:02:55;36.70;29.92;40.03;;
46749;Laerm;33775;47.992;11.864;2023-02-15T10:05:27;36.64;29.92;39.92;;
46749;Laerm;33775;47.992;11.864;2023-02-15T10:20:30;36.64;26.91;39.46;;
46749;Laerm;33775;47.992;11.864;2023-02-15T10:28:30;36.58;30.89;39.81;;
46749;Laerm;33775;47.992;11.864;2023-02-15T10:31:06;36.60;30.89;39.46;;
46749;Laerm;33775;47.992;11.864;2023-02-15T10:33:40;36.60;29.92;39.70;;
46749;Laerm;33775;47.992;11.864;2023-02-15T10:41:39;36.57;29.92;39.58;;
46749;Laerm;33775;47.992;11.864;2023-02-15T10:49:22;36.60;30.89;39.70;;
46749;Laerm;33775;47.992;11.864;2023-02-15T11:07:23;36.59;29.92;39.58;;
46749;Laerm;33775;47.992;11.864;2023-02-15T11:12:35;36.55;28.67;39.92;;
46749;Laerm;33775;47.992;11.864;2023-02-15T11:15:03;36.60;29.92;39.35;;
46749;Laerm;33775;47.992;11.864;2023-02-15T11:17:33;36.54;29.92;39.70;;
46749;Laerm;33775;47.992;11.864;2023-02-15T11:22:40;37.00;31.68;39.81;;
46749;Laerm;33775;47.992;11.864;2023-02-15T11:25:14;37.07;30.89;39.89;;
46749;Laerm;33775;47.992;11.864;2023-02-15T11:27:42;37.20;32.35;39.92;;
46749;Laerm;33775;47.992;11.864;2023-02-15T11:30:13;37.29;32.58;40.03;;
46749;Laerm;33775;47.992;11.864;2023-02-15T11:35:10;37.29;32.35;40.23;;
46749;Laerm;33775;47.992;11.864;2023-02-15T11:37:58;37.27;32.93;40.03;;
46749;Laerm;33775;47.992;11.864;2023-02-15T11:40:33;37.20;32.35;40.33;;
46749;Laerm;33775;47.992;11.864;2023-02-15T11:43:06;37.24;29.92;40.13;;
46749;Laerm;33775;47.992;11.864;2023-02-15T11:45:36;37.43;33.44;40.43;;
46749;Laerm;33775;47.992;11.864;2023-02-15T11:48:01;37.31;32.35;40.62;;
46749;Laerm;33775;47.992;11.864;2023-02-15T11:50:33;37.33;32.35;40.54;;
46749;Laerm;33775;47.992;11.864;2023-02-15T11:53:03;37.51;33.44;40.43;;
46749;Laerm;33775;47.992;11.864;2023-02-15T11:55:29;37.31;32.35;40.13;;
46749;Laerm;33775;47.992;11.864;2023-02-15T11:58:00;37.26;32.35;40.62;;
46749;Laerm;33775;47.992;11.864;2023-02-15T12:02:52;37.32;32.93;40.33;;
46749;Laerm;33775;47.992;11.864;2023-02-15T12:05:19;37.39;32.93;40.43;;
46749;Laerm;33775;47.992;11.864;2023-02-15T12:12:38;37.40;32.93;40.13;;
46749;Laerm;33775;47.992;11.864;2023-02-15T12:15:05;37.74;32.93;41.22;;
46749;Laerm;33775;47.992;11.864;2023-02-15T12:17:32;37.88;33.44;40.54;;
46749;Laerm;33775;47.992;11.864;2023-02-15T12:20:00;37.76;33.44;40.33;;
46749;Laerm;33775;47.992;11.864;2023-02-15T12:22:30;37.68;28.67;41.06;;
46749;Laerm;33775;47.992;11.864;2023-02-15T12:25:00;37.75;23.90;54.71;;
46749;Laerm;33775;47.992;11.864;2023-02-15T12:27:32;37.89;32.93;40.62;;
46749;Laerm;33775;47.992;11.864;2023-02-15T12:30:00;37.60;32.93;40.89;;
46749;Laerm;33775;47.992;11.864;2023-02-15T12:32:31;37.47;32.93;40.13;;
46749;Laerm;33775;47.992;11.864;2023-02-15T12:35:20;37.38;32.93;40.43;;
46749;Laerm;33775;47.992;11.864;2023-02-15T12:37:53;37.41;31.68;40.62;;
46749;Laerm;33775;47.992;11.864;2023-02-15T12:40:21;37.50;32.35;40.13;;
46749;Laerm;33775;47.992;11.864;2023-02-15T12:42:46;37.36;31.68;40.43;;
46749;Laerm;33775;47.992;11.864;2023-02-15T12:50:36;37.18;32.35;40.13;;
46749;Laerm;33775;47.992;11.864;2023-02-15T12:55:35;37.16;32.93;39.81;;
46749;Laerm;33775;47.992;11.864;2023-02-15T12:58:16;37.16;30.89;40.03;;
46749;Laerm;33775;47.992;11.864;2023-02-15T13:00:43;37.15;32.35;39.81;;
46749;Laerm;33775;47.992;11.864;2023-02-15T13:03:15;37.24;32.35;39.81;;
46749;Laerm;33775;47.992;11.864;2023-02-15T13:05:42;37.38;32.93;40.03;;
46749;Laerm;33775;47.992;11.864;2023-02-15T13:10:39;37.35;32.93;40.03;;
46749;Laerm;33775;47.992;11.864;2023-02-15T13:13:11;37.53;33.44;40.23;;
46749;Laerm;33775;47.992;11.864;2023-02-15T13:15:43;37.54;32.58;40.13;;
46749;Laerm;33775;47.992;11.864;2023-02-15T13:18:13;37.41;33.44;40.13;;
46749;Laerm;33775;47.992;11.864;2023-02-15T13:20:40;37.40;30.89;40.03;;
46749;Laerm;33775;47.992;11.864;2023-02-15T13:23:12;37.45;31.68;40.23;;
46749;Laerm;33775;47.992;11.864;2023-02-15T13:25:41;37.41;32.93;40.53;;
46749;Laerm;33775;47.992;11.864;2023-02-15T13:28:10;37.41;31.68;40.13;;
46749;Laerm;33775;47.992;11.864;2023-02-15T13:30:42;37.46;32.93;40.23;;
46749;Laerm;33775;47.992;11.864;2023-02-15T13:33:10;37.49;33.44;40.43;;
46749;Laerm;33775;47.992;11.864;2023-02-15T13:40:53;37.34;32.35;40.13;;
46749;Laerm;33775;47.992;11.864;2023-02-15T13:43:23;37.35;32.35;39.81;;
46749;Laerm;33775;47.992;11.864;2023-02-15T13:53:46;37.39;32.35;40.13;;
46749;Laerm;33775;47.992;11.864;2023-02-15T14:01:40;37.35;31.68;40.33;;
46749;Laerm;33775;47.992;11.864;2023-02-15T14:07:04;37.33;32.35;40.23;;
46749;Laerm;33775;47.992;11.864;2023-02-15T14:09:47;37.38;32.93;40.23;;
46749;Laerm;33775;47.992;11.864;2023-02-15T14:12:26;37.35;32.35;40.33;;
46749;Laerm;33775;47.992;11.864;2023-02-15T14:15:03;37.36;32.93;39.92;;
46749;Laerm;33775;47.992;11.864;2023-02-15T14:19:57;37.38;32.35;40.18;;
46749;Laerm;33775;47.992;11.864;2023-02-15T14:22:36;37.39;30.89;40.23;;
46749;Laerm;33775;47.992;11.864;2023-02-15T14:27:54;37.51;32.35;40.71;;
46749;Laerm;33775;47.992;11.864;2023-02-15T14:30:23;37.45;32.93;40.33;;
46749;Laerm;33775;47.992;11.864;2023-02-15T14:32:51;37.40;32.35;40.03;;
46749;Laerm;33775;47.992;11.864;2023-02-15T14:35:19;37.41;32.35;40.62;;
46749;Laerm;33775;47.992;11.864;2023-02-15T14:48:55;37.49;32.93;40.03;;
46749;Laerm;33775;47.992;11.864;2023-02-15T14:52:20;37.49;31.68;40.23;;
46749;Laerm;33775;47.992;11.864;2023-02-15T14:56:46;37.43;32.93;40.62;;
46749;Laerm;33775;47.992;11.864;2023-02-15T14:59:18;37.43;32.35;40.23;;
46749;Laerm;33775;47.992;11.864;2023-02-15T15:07:07;37.41;32.35;40.13;;
46749;Laerm;33775;47.992;11.864;2023-02-15T15:09:35;37.40;31.68;39.92;;
46749;Laerm;33775;47.992;11.864;2023-02-15T15:14:40;37.44;32.93;40.03;;
46749;Laerm;33775;47.992;11.864;2023-02-15T15:17:06;37.47;33.44;40.23;;
46749;Laerm;33775;47.992;11.864;2023-02-15T15:22:17;37.43;32.93;40.13;;
46749;Laerm;33775;47.992;11.864;2023-02-15T15:40:39;37.21;31.68;40.03;;
46749;Laerm;33775;47.992;11.864;2023-02-15T15:45:46;37.20;29.92;40.08;;
46749;Laerm;33775;47.992;11.864;2023-02-15T15:50:43;37.21;32.93;40.33;;
46749;Laerm;33775;47.992;11.864;2023-02-15T15:53:22;37.19;30.89;39.78;;
46749;Laerm;33775;47.992;11.864;2023-02-15T15:55:48;37.22;32.35;40.13;;
46749;Laerm;33775;47.992;11.864;2023-02-15T15:58:16;37.17;31.68;39.81;;
46749;Laerm;33775;47.992;11.864;2023-02-15T16:03:47;37.15;32.35;39.70;;
46749;Laerm;33775;47.992;11.864;2023-02-15T16:05:59;37.13;32.35;40.23;;
46749;Laerm;33775;47.992;11.864;2023-02-15T16:08:38;37.15;32.35;40.13;;
46749;Laerm;33775;47.992;11.864;2023-02-15T16:11:16;37.17;31.68;40.03;;
46749;Laerm;33775;47.992;11.864;2023-02-15T16:13:44;37.16;32.35;40.13;;
46749;Laerm;33775;47.992;11.864;2023-02-15T16:16:11;37.15;31.68;40.62;;
46749;Laerm;33775;47.992;11.864;2023-02-15T16:18:37;37.15;32.93;39.81;;
46749;Laerm;33775;47.992;11.864;2023-02-15T16:21:13;37.12;32.93;39.70;;
46749;Laerm;33775;47.992;11.864;2023-02-15T16:23:57;37.07;31.68;39.92;;
46749;Laerm;33775;47.992;11.864;2023-02-15T16:28:55;36.98;29.92;39.70;;
46749;Laerm;33775;47.992;11.864;2023-02-15T16:31:21;36.96;32.35;39.81;;
46749;Laerm;33775;47.992;11.864;2023-02-15T16:33:52;36.92;31.68;39.81;;
46749;Laerm;33775;47.992;11.864;2023-02-15T16:36:22;36.89;30.89;39.58;;
46749;Laerm;33775;47.992;11.864;2023-02-15T16:41:17;36.87;31.68;39.70;;
46749;Laerm;33775;47.992;11.864;2023-02-15T16:43:46;36.86;30.89;39.81;;
46749;Laerm;33775;47.992;11.864;2023-02-15T16:46:18;36.84;29.92;40.43;;